sensor_id;sensor_type;location;lat;lon;timestamp;P1;durP1;ratioP1;P2;durP2;ratioP2
69161;SDS011;56269;51.738;21.652;2023-06-04T00:00:45;7.72;;;2.70;;
69161;SDS011;56269;51.738;21.652;2023-06-04T00:03:32;7.50;;;2.20;;
69161;SDS011;56269;51.738;21.652;2023-06-04T00:05:59;6.15;;;2.30;;
69161;SDS011;56269;51.738;21.652;2023-06-04T00:08:25;6.78;;;2.00;;
69161;SDS011;56269;51.738;21.652;2023-06-04T00:10:52;8.18;;;2.58;;
69161;SDS011;56269;51.738;21.652;2023-06-04T00:13:20;7.85;;;2.58;;
69161;SDS011;56269;51.738;21.652;2023-06-04T00:15:46;6.27;;;2.20;;
69161;SDS011;56269;51.738;21.652;2023-06-04T00:18:12;7.95;;;2.30;;
69161;SDS011;56269;51.738;21.652;2023-06-04T00:20:39;8.73;;;2.58;;
69161;SDS011;56269;51.738;21.652;2023-06-04T00:23:05;7.00;;;2.53;;
69161;SDS011;56269;51.738;21.652;2023-06-04T00:25:32;7.70;;;2.47;;
69161;SDS011;56269;51.738;21.652;2023-06-04T00:28:01;8.20;;;2.13;;
69161;SDS011;56269;51.738;21.652;2023-06-04T00:30:27;7.45;;;2.28;;
69161;SDS011;56269;51.738;21.652;2023-06-04T00:32:53;6.82;;;2.42;;
69161;SDS011;56269;51.738;21.652;2023-06-04T00:35:20;8.50;;;2.63;;
69161;SDS011;56269;51.738;21.652;2023-06-04T00:37:46;7.77;;;2.27;;
69161;SDS011;56269;51.738;21.652;2023-06-04T00:40:12;6.55;;;2.20;;
69161;SDS011;56269;51.738;21.652;2023-06-04T00:42:38;7.15;;;2.38;;
69161;SDS011;56269;51.738;21.652;2023-06-04T00:45:05;8.65;;;2.55;;
69161;SDS011;56269;51.738;21.652;2023-06-04T00:47:35;8.23;;;2.38;;
69161;SDS011;56269;51.738;21.652;2023-06-04T00:50:02;8.43;;;3.77;;
69161;SDS011;56269;51.738;21.652;2023-06-04T00:52:28;8.63;;;2.50;;
69161;SDS011;56269;51.738;21.652;2023-06-04T00:54:54;8.80;;;2.30;;
69161;SDS011;56269;51.738;21.652;2023-06-04T00:57:21;6.93;;;2.20;;
69161;SDS011;56269;51.738;21.652;2023-06-04T00:59:48;9.23;;;2.20;;
69161;SDS011;56269;51.738;21.652;2023-06-04T01:02:16;7.13;;;2.10;;
69161;SDS011;56269;51.738;21.652;2023-06-04T01:05:11;6.68;;;2.10;;
69161;SDS011;56269;51.738;21.652;2023-06-04T01:08:01;7.10;;;2.22;;
69161;SDS011;56269;51.738;21.652;2023-06-04T01:10:27;6.00;;;2.10;;
69161;SDS011;56269;51.738;21.652;2023-06-04T01:12:53;7.22;;;2.20;;
69161;SDS011;56269;51.738;21.652;2023-06-04T01:15:19;6.30;;;2.10;;
69161;SDS011;56269;51.738;21.652;2023-06-04T01:17:46;5.55;;;2.00;;
69161;SDS011;56269;51.738;21.652;2023-06-04T01:23:28;7.55;;;1.92;;
69161;SDS011;56269;51.738;21.652;2023-06-04T01:26:26;8.15;;;1.90;;
69161;SDS011;56269;51.738;21.652;2023-06-04T01:28:54;4.80;;;1.70;;
69161;SDS011;56269;51.738;21.652;2023-06-04T01:31:22;7.53;;;2.05;;
69161;SDS011;56269;51.738;21.652;2023-06-04T01:33:53;6.72;;;1.85;;
69161;SDS011;56269;51.738;21.652;2023-06-04T01:36:20;6.07;;;2.00;;
69161;SDS011;56269;51.738;21.652;2023-06-04T01:38:46;7.97;;;2.30;;
69161;SDS011;56269;51.738;21.652;2023-06-04T01:41:12;7.33;;;2.10;;
69161;SDS011;56269;51.738;21.652;2023-06-04T01:43:38;5.88;;;2.20;;
69161;SDS011;56269;51.738;21.652;2023-06-04T01:46:05;7.55;;;2.03;;
69161;SDS011;56269;51.738;21.652;2023-06-04T01:48:31;5.97;;;1.90;;
69161;SDS011;56269;51.738;21.652;2023-06-04T01:51:00;5.63;;;2.10;;
69161;SDS011;56269;51.738;21.652;2023-06-04T01:53:27;6.90;;;2.13;;
69161;SDS011;56269;51.738;21.652;2023-06-04T01:55:53;6.93;;;2.10;;
69161;SDS011;56269;51.738;21.652;2023-06-04T01:58:20;9.65;;;2.50;;
69161;SDS011;56269;51.738;21.652;2023-06-04T02:00:53;6.93;;;1.95;;
69161;SDS011;56269;51.738;21.652;2023-06-04T02:03:21;6.30;;;2.30;;
69161;SDS011;56269;51.738;21.652;2023-06-04T02:05:49;7.30;;;2.17;;
69161;SDS011;56269;51.738;21.652;2023-06-04T02:08:15;6.60;;;2.17;;
69161;SDS011;56269;51.738;21.652;2023-06-04T02:10:45;6.43;;;2.20;;
69161;SDS011;56269;51.738;21.652;2023-06-04T02:13:13;6.72;;;2.20;;
69161;SDS011;56269;51.738;21.652;2023-06-04T02:15:39;5.90;;;2.05;;
69161;SDS011;56269;51.738;21.652;2023-06-04T02:18:12;5.20;;;1.80;;
69161;SDS011;56269;51.738;21.652;2023-06-04T02:20:47;6.05;;;2.08;;
69161;SDS011;56269;51.738;21.652;2023-06-04T02:23:14;6.78;;;2.40;;
69161;SDS011;56269;51.738;21.652;2023-06-04T02:25:43;6.72;;;2.08;;
69161;SDS011;56269;51.738;21.652;2023-06-04T02:28:13;7.15;;;2.33;;
69161;SDS011;56269;51.738;21.652;2023-06-04T02:30:39;6.63;;;2.10;;
69161;SDS011;56269;51.738;21.652;2023-06-04T02:33:05;7.20;;;2.30;;
69161;SDS011;56269;51.738;21.652;2023-06-04T02:35:32;6.47;;;2.20;;
69161;SDS011;56269;51.738;21.652;2023-06-04T02:37:58;5.63;;;2.20;;
69161;SDS011;56269;51.738;21.652;2023-06-04T02:40:24;6.85;;;2.20;;
69161;SDS011;56269;51.738;21.652;2023-06-04T02:42:54;7.23;;;2.27;;
69161;SDS011;56269;51.738;21.652;2023-06-04T02:45:22;6.68;;;2.05;;
69161;SDS011;56269;51.738;21.652;2023-06-04T02:47:48;8.30;;;2.47;;
69161;SDS011;56269;51.738;21.652;2023-06-04T02:50:15;6.05;;;2.30;;
69161;SDS011;56269;51.738;21.652;2023-06-04T02:52:41;6.93;;;2.30;;
69161;SDS011;56269;51.738;21.652;2023-06-04T02:55:08;6.43;;;2.37;;
69161;SDS011;56269;51.738;21.652;2023-06-04T02:57:38;7.57;;;2.30;;
69161;SDS011;56269;51.738;21.652;2023-06-04T03:00:07;7.32;;;2.42;;
69161;SDS011;56269;51.738;21.652;2023-06-04T03:02:46;6.60;;;2.20;;
69161;SDS011;56269;51.738;21.652;2023-06-04T03:05:15;7.32;;;2.17;;
69161;SDS011;56269;51.738;21.652;2023-06-04T03:07:43;7.17;;;2.37;;
69161;SDS011;56269;51.738;21.652;2023-06-04T03:10:11;6.13;;;2.30;;
69161;SDS011;56269;51.738;21.652;2023-06-04T03:12:38;7.38;;;2.35;;
69161;SDS011;56269;51.738;21.652;2023-06-04T03:15:05;6.45;;;2.10;;
69161;SDS011;56269;51.738;21.652;2023-06-04T03:17:32;5.78;;;2.15;;
69161;SDS011;56269;51.738;21.652;2023-06-04T03:19:58;6.37;;;2.17;;
69161;SDS011;56269;51.738;21.652;2023-06-04T03:22:24;7.63;;;2.20;;
69161;SDS011;56269;51.738;21.652;2023-06-04T03:24:51;7.05;;;2.40;;
69161;SDS011;56269;51.738;21.652;2023-06-04T03:27:18;5.50;;;2.03;;
69161;SDS011;56269;51.738;21.652;2023-06-04T03:29:45;6.50;;;2.10;;
69161;SDS011;56269;51.738;21.652;2023-06-04T03:32:13;6.63;;;1.93;;
69161;SDS011;56269;51.738;21.652;2023-06-04T03:34:42;5.65;;;1.92;;
69161;SDS011;56269;51.738;21.652;2023-06-04T03:37:08;6.75;;;2.10;;
69161;SDS011;56269;51.738;21.652;2023-06-04T03:39:34;9.50;;;1.85;;
69161;SDS011;56269;51.738;21.652;2023-06-04T03:42:00;6.13;;;2.30;;
69161;SDS011;56269;51.738;21.652;2023-06-04T03:44:27;5.97;;;1.97;;
69161;SDS011;56269;51.738;21.652;2023-06-04T03:46:53;5.95;;;2.17;;
69161;SDS011;56269;51.738;21.652;2023-06-04T03:49:19;5.75;;;1.92;;
69161;SDS011;56269;51.738;21.652;2023-06-04T03:51:47;6.45;;;1.90;;
69161;SDS011;56269;51.738;21.652;2023-06-04T03:54:14;5.68;;;2.13;;
69161;SDS011;56269;51.738;21.652;2023-06-04T03:56:44;7.30;;;2.17;;
69161;SDS011;56269;51.738;21.652;2023-06-04T03:59:13;5.25;;;2.00;;
69161;SDS011;56269;51.738;21.652;2023-06-04T04:01:39;5.97;;;2.25;;
69161;SDS011;56269;51.738;21.652;2023-06-04T04:04:06;7.18;;;2.50;;
69161;SDS011;56269;51.738;21.652;2023-06-04T04:06:32;6.50;;;2.20;;
69161;SDS011;56269;51.738;21.652;2023-06-04T04:08:58;5.73;;;2.07;;
69161;SDS011;56269;51.738;21.652;2023-06-04T04:11:24;6.18;;;2.22;;
69161;SDS011;56269;51.738;21.652;2023-06-04T04:13:51;6.95;;;2.60;;
69161;SDS011;56269;51.738;21.652;2023-06-04T04:16:17;8.15;;;2.30;;
69161;SDS011;56269;51.738;21.652;2023-06-04T04:18:43;5.55;;;2.15;;
69161;SDS011;56269;51.738;21.652;2023-06-04T04:21:10;6.83;;;2.07;;
69161;SDS011;56269;51.738;21.652;2023-06-04T04:23:40;6.05;;;2.22;;
69161;SDS011;56269;51.738;21.652;2023-06-04T04:26:06;6.80;;;2.50;;
69161;SDS011;56269;51.738;21.652;2023-06-04T04:28:34;5.88;;;2.35;;
69161;SDS011;56269;51.738;21.652;2023-06-04T04:31:00;6.53;;;2.50;;
69161;SDS011;56269;51.738;21.652;2023-06-04T04:33:28;8.27;;;2.30;;
69161;SDS011;56269;51.738;21.652;2023-06-04T04:35:58;6.30;;;2.30;;
69161;SDS011;56269;51.738;21.652;2023-06-04T04:38:27;6.18;;;2.10;;
69161;SDS011;56269;51.738;21.652;2023-06-04T04:40:56;8.13;;;2.38;;
69161;SDS011;56269;51.738;21.652;2023-06-04T04:43:32;5.93;;;2.20;;
69161;SDS011;56269;51.738;21.652;2023-06-04T04:46:00;7.37;;;2.20;;
69161;SDS011;56269;51.738;21.652;2023-06-04T04:48:26;5.47;;;1.90;;
69161;SDS011;56269;51.738;21.652;2023-06-04T04:50:53;8.15;;;2.30;;
69161;SDS011;56269;51.738;21.652;2023-06-04T04:53:19;6.38;;;1.95;;
69161;SDS011;56269;51.738;21.652;2023-06-04T04:55:46;5.75;;;2.03;;
69161;SDS011;56269;51.738;21.652;2023-06-04T04:58:12;7.37;;;1.90;;
69161;SDS011;56269;51.738;21.652;2023-06-04T05:00:38;3.80;;;1.50;;
69161;SDS011;56269;51.738;21.652;2023-06-04T05:03:05;5.90;;;2.00;;
69161;SDS011;56269;51.738;21.652;2023-06-04T05:05:31;7.45;;;1.95;;
69161;SDS011;56269;51.738;21.652;2023-06-04T05:07:58;4.93;;;1.95;;
69161;SDS011;56269;51.738;21.652;2023-06-04T05:10:24;6.63;;;1.80;;
69161;SDS011;56269;51.738;21.652;2023-06-04T05:12:55;5.07;;;1.63;;
69161;SDS011;56269;51.738;21.652;2023-06-04T05:15:23;5.60;;;1.88;;
69161;SDS011;56269;51.738;21.652;2023-06-04T05:17:50;5.10;;;1.88;;
69161;SDS011;56269;51.738;21.652;2023-06-04T05:20:18;6.72;;;1.80;;
69161;SDS011;56269;51.738;21.652;2023-06-04T05:22:46;5.67;;;1.63;;
69161;SDS011;56269;51.738;21.652;2023-06-04T05:25:13;4.43;;;1.60;;
69161;SDS011;56269;51.738;21.652;2023-06-04T05:27:40;6.25;;;1.83;;
69161;SDS011;56269;51.738;21.652;2023-06-04T05:30:07;6.65;;;1.58;;
69161;SDS011;56269;51.738;21.652;2023-06-04T05:32:34;5.20;;;1.90;;
69161;SDS011;56269;51.738;21.652;2023-06-04T05:35:02;4.33;;;1.70;;
69161;SDS011;56269;51.738;21.652;2023-06-04T05:37:30;4.43;;;1.48;;
69161;SDS011;56269;51.738;21.652;2023-06-04T05:39:56;5.25;;;1.85;;
69161;SDS011;56269;51.738;21.652;2023-06-04T05:42:23;5.07;;;1.45;;
69161;SDS011;56269;51.738;21.652;2023-06-04T05:44:50;4.90;;;1.70;;
69161;SDS011;56269;51.738;21.652;2023-06-04T05:47:16;4.90;;;1.33;;
69161;SDS011;56269;51.738;21.652;2023-06-04T05:49:43;4.93;;;1.48;;
69161;SDS011;56269;51.738;21.652;2023-06-04T05:52:10;5.72;;;1.50;;
69161;SDS011;56269;51.738;21.652;2023-06-04T05:54:36;6.18;;;1.52;;
69161;SDS011;56269;51.738;21.652;2023-06-04T05:57:04;5.20;;;1.88;;
69161;SDS011;56269;51.738;21.652;2023-06-04T05:59:31;6.47;;;1.77;;
69161;SDS011;56269;51.738;21.652;2023-06-04T06:01:59;6.18;;;1.42;;
69161;SDS011;56269;51.738;21.652;2023-06-04T06:04:26;4.90;;;1.50;;
69161;SDS011;56269;51.738;21.652;2023-06-04T06:06:52;5.38;;;1.30;;
69161;SDS011;56269;51.738;21.652;2023-06-04T06:09:19;3.78;;;1.40;;
69161;SDS011;56269;51.738;21.652;2023-06-04T06:11:45;3.97;;;1.30;;
69161;SDS011;56269;51.738;21.652;2023-06-04T06:14:11;5.72;;;1.45;;
69161;SDS011;56269;51.738;21.652;2023-06-04T06:16:38;3.45;;;1.30;;
69161;SDS011;56269;51.738;21.652;2023-06-04T06:19:04;4.63;;;1.42;;
69161;SDS011;56269;51.738;21.652;2023-06-04T06:21:30;5.35;;;1.40;;
69161;SDS011;56269;51.738;21.652;2023-06-04T06:23:59;4.07;;;1.40;;
69161;SDS011;56269;51.738;21.652;2023-06-04T06:26:25;3.53;;;1.13;;
69161;SDS011;56269;51.738;21.652;2023-06-04T06:28:51;4.03;;;1.23;;
69161;SDS011;56269;51.738;21.652;2023-06-04T06:31:17;5.55;;;1.83;;
69161;SDS011;56269;51.738;21.652;2023-06-04T06:33:44;5.10;;;1.20;;
69161;SDS011;56269;51.738;21.652;2023-06-04T06:36:11;4.13;;;1.00;;
69161;SDS011;56269;51.738;21.652;2023-06-04T06:38:37;5.13;;;1.20;;
69161;SDS011;56269;51.738;21.652;2023-06-04T06:41:04;3.10;;;1.10;;
69161;SDS011;56269;51.738;21.652;2023-06-04T06:43:32;6.43;;;1.13;;
69161;SDS011;56269;51.738;21.652;2023-06-04T06:45:59;2.78;;;1.00;;
69161;SDS011;56269;51.738;21.652;2023-06-04T06:48:25;2.60;;;0.90;;
69161;SDS011;56269;51.738;21.652;2023-06-04T06:50:51;3.00;;;0.93;;
69161;SDS011;56269;51.738;21.652;2023-06-04T06:53:18;5.45;;;1.27;;
69161;SDS011;56269;51.738;21.652;2023-06-04T06:55:44;4.50;;;1.10;;
69161;SDS011;56269;51.738;21.652;2023-06-04T06:58:10;3.15;;;0.80;;
69161;SDS011;56269;51.738;21.652;2023-06-04T07:00:36;4.60;;;1.00;;
69161;SDS011;56269;51.738;21.652;2023-06-04T07:03:03;4.35;;;1.20;;
69161;SDS011;56269;51.738;21.652;2023-06-04T07:05:30;4.38;;;1.20;;
69161;SDS011;56269;51.738;21.652;2023-06-04T07:07:56;4.68;;;1.27;;
69161;SDS011;56269;51.738;21.652;2023-06-04T07:10:26;3.97;;;1.05;;
69161;SDS011;56269;51.738;21.652;2023-06-04T07:12:53;3.00;;;1.10;;
69161;SDS011;56269;51.738;21.652;2023-06-04T07:15:19;3.55;;;1.20;;
69161;SDS011;56269;51.738;21.652;2023-06-04T07:17:45;3.45;;;1.25;;
69161;SDS011;56269;51.738;21.652;2023-06-04T07:20:12;3.65;;;1.23;;
69161;SDS011;56269;51.738;21.652;2023-06-04T07:22:38;3.35;;;1.10;;
69161;SDS011;56269;51.738;21.652;2023-06-04T07:25:05;4.67;;;1.27;;
69161;SDS011;56269;51.738;21.652;2023-06-04T07:27:33;2.50;;;0.90;;
69161;SDS011;56269;51.738;21.652;2023-06-04T07:29:59;3.92;;;1.20;;
69161;SDS011;56269;51.738;21.652;2023-06-04T07:32:26;4.57;;;1.10;;
69161;SDS011;56269;51.738;21.652;2023-06-04T07:34:52;4.47;;;1.10;;
69161;SDS011;56269;51.738;21.652;2023-06-04T07:37:18;4.00;;;1.33;;
69161;SDS011;56269;51.738;21.652;2023-06-04T07:39:44;4.40;;;1.45;;
69161;SDS011;56269;51.738;21.652;2023-06-04T07:42:10;3.67;;;1.20;;
69161;SDS011;56269;51.738;21.652;2023-06-04T07:44:37;3.42;;;1.17;;
69161;SDS011;56269;51.738;21.652;2023-06-04T07:47:03;5.15;;;1.25;;
69161;SDS011;56269;51.738;21.652;2023-06-04T07:49:30;4.43;;;1.47;;
69161;SDS011;56269;51.738;21.652;2023-06-04T07:51:56;3.65;;;1.10;;
69161;SDS011;56269;51.738;21.652;2023-06-04T07:54:23;3.50;;;1.10;;
69161;SDS011;56269;51.738;21.652;2023-06-04T07:56:49;2.88;;;1.00;;
69161;SDS011;56269;51.738;21.652;2023-06-04T07:59:22;3.72;;;1.10;;
69161;SDS011;56269;51.738;21.652;2023-06-04T08:01:51;3.40;;;1.10;;
69161;SDS011;56269;51.738;21.652;2023-06-04T08:04:18;2.67;;;1.02;;
69161;SDS011;56269;51.738;21.652;2023-06-04T08:06:44;3.33;;;1.10;;
69161;SDS011;56269;51.738;21.652;2023-06-04T08:09:12;3.58;;;1.20;;
69161;SDS011;56269;51.738;21.652;2023-06-04T08:11:40;3.33;;;1.10;;
69161;SDS011;56269;51.738;21.652;2023-06-04T08:14:09;4.53;;;1.10;;
69161;SDS011;56269;51.738;21.652;2023-06-04T08:16:39;4.10;;;1.10;;
69161;SDS011;56269;51.738;21.652;2023-06-04T08:19:08;4.15;;;1.20;;
69161;SDS011;56269;51.738;21.652;2023-06-04T08:21:35;4.50;;;1.10;;
69161;SDS011;56269;51.738;21.652;2023-06-04T08:24:01;3.25;;;1.02;;
69161;SDS011;56269;51.738;21.652;2023-06-04T08:26:28;3.17;;;1.10;;
69161;SDS011;56269;51.738;21.652;2023-06-04T08:28:54;3.70;;;1.10;;
69161;SDS011;56269;51.738;21.652;2023-06-04T08:31:20;3.13;;;1.00;;
69161;SDS011;56269;51.738;21.652;2023-06-04T08:33:47;2.88;;;1.10;;
69161;SDS011;56269;51.738;21.652;2023-06-04T08:36:13;4.22;;;1.30;;
69161;SDS011;56269;51.738;21.652;2023-06-04T08:38:43;3.13;;;1.07;;
69161;SDS011;56269;51.738;21.652;2023-06-04T08:41:15;3.75;;;1.10;;
69161;SDS011;56269;51.738;21.652;2023-06-04T08:43:42;3.50;;;1.17;;
69161;SDS011;56269;51.738;21.652;2023-06-04T08:46:12;3.88;;;1.27;;
69161;SDS011;56269;51.738;21.652;2023-06-04T08:48:41;4.47;;;0.93;;
69161;SDS011;56269;51.738;21.652;2023-06-04T08:51:07;3.37;;;1.20;;
69161;SDS011;56269;51.738;21.652;2023-06-04T08:53:35;3.03;;;1.05;;
69161;SDS011;56269;51.738;21.652;2023-06-04T08:56:02;3.63;;;1.08;;
69161;SDS011;56269;51.738;21.652;2023-06-04T08:58:32;3.28;;;1.10;;
69161;SDS011;56269;51.738;21.652;2023-06-04T09:01:01;4.82;;;1.30;;
69161;SDS011;56269;51.738;21.652;2023-06-04T09:03:28;4.43;;;1.20;;
69161;SDS011;56269;51.738;21.652;2023-06-04T09:06:01;3.75;;;1.10;;
69161;SDS011;56269;51.738;21.652;2023-06-04T09:08:31;3.65;;;1.20;;
69161;SDS011;56269;51.738;21.652;2023-06-04T09:10:59;3.58;;;1.17;;
69161;SDS011;56269;51.738;21.652;2023-06-04T09:13:31;5.97;;;1.10;;
69161;SDS011;56269;51.738;21.652;2023-06-04T09:15:59;4.93;;;1.07;;
69161;SDS011;56269;51.738;21.652;2023-06-04T09:18:26;5.05;;;1.20;;
69161;SDS011;56269;51.738;21.652;2023-06-04T09:21:02;2.80;;;1.10;;
69161;SDS011;56269;51.738;21.652;2023-06-04T09:23:51;2.20;;;1.00;;
69161;SDS011;56269;51.738;21.652;2023-06-04T09:26:17;3.42;;;1.17;;
69161;SDS011;56269;51.738;21.652;2023-06-04T09:28:44;3.30;;;1.10;;
69161;SDS011;56269;51.738;21.652;2023-06-04T09:31:14;4.25;;;1.08;;
69161;SDS011;56269;51.738;21.652;2023-06-04T09:33:42;5.55;;;1.30;;
69161;SDS011;56269;51.738;21.652;2023-06-04T09:36:09;3.20;;;1.10;;
69161;SDS011;56269;51.738;21.652;2023-06-04T09:38:35;4.30;;;1.08;;
69161;SDS011;56269;51.738;21.652;2023-06-04T09:41:02;3.03;;;1.23;;
69161;SDS011;56269;51.738;21.652;2023-06-04T09:43:32;4.32;;;1.30;;
69161;SDS011;56269;51.738;21.652;2023-06-04T09:48:38;4.70;;;1.17;;
69161;SDS011;56269;51.738;21.652;2023-06-04T09:51:12;4.43;;;1.17;;
69161;SDS011;56269;51.738;21.652;2023-06-04T09:53:58;3.10;;;1.00;;
69161;SDS011;56269;51.738;21.652;2023-06-04T09:56:26;2.45;;;0.80;;
69161;SDS011;56269;51.738;21.652;2023-06-04T09:58:54;4.72;;;1.20;;
69161;SDS011;56269;51.738;21.652;2023-06-04T10:01:26;3.63;;;1.10;;
69161;SDS011;56269;51.738;21.652;2023-06-04T10:03:56;6.72;;;1.27;;
69161;SDS011;56269;51.738;21.652;2023-06-04T10:06:24;4.40;;;1.10;;
69161;SDS011;56269;51.738;21.652;2023-06-04T10:08:52;3.80;;;1.05;;
69161;SDS011;56269;51.738;21.652;2023-06-04T10:11:22;3.03;;;1.00;;
69161;SDS011;56269;51.738;21.652;2023-06-04T10:13:53;3.83;;;1.05;;
69161;SDS011;56269;51.738;21.652;2023-06-04T10:16:26;3.03;;;1.08;;
69161;SDS011;56269;51.738;21.652;2023-06-04T10:18:53;4.17;;;1.20;;
69161;SDS011;56269;51.738;21.652;2023-06-04T10:21:20;2.60;;;1.05;;
69161;SDS011;56269;51.738;21.652;2023-06-04T10:23:50;3.13;;;1.17;;
69161;SDS011;56269;51.738;21.652;2023-06-04T10:26:16;4.15;;;1.13;;
69161;SDS011;56269;51.738;21.652;2023-06-04T10:28:42;4.38;;;1.10;;
69161;SDS011;56269;51.738;21.652;2023-06-04T10:31:09;3.50;;;1.20;;
69161;SDS011;56269;51.738;21.652;2023-06-04T10:33:36;3.95;;;1.10;;
69161;SDS011;56269;51.738;21.652;2023-06-04T10:36:19;4.20;;;1.10;;
69161;SDS011;56269;51.738;21.652;2023-06-04T10:41:18;4.30;;;1.10;;
69161;SDS011;56269;51.738;21.652;2023-06-04T10:43:47;3.63;;;1.20;;
69161;SDS011;56269;51.738;21.652;2023-06-04T10:46:18;3.00;;;0.90;;
69161;SDS011;56269;51.738;21.652;2023-06-04T10:48:49;4.28;;;1.10;;
69161;SDS011;56269;51.738;21.652;2023-06-04T10:51:16;4.15;;;1.30;;
69161;SDS011;56269;51.738;21.652;2023-06-04T10:53:56;3.17;;;1.00;;
69161;SDS011;56269;51.738;21.652;2023-06-04T10:56:29;3.27;;;1.27;;
69161;SDS011;56269;51.738;21.652;2023-06-04T10:59:13;4.53;;;1.27;;
69161;SDS011;56269;51.738;21.652;2023-06-04T11:01:40;4.38;;;1.20;;
69161;SDS011;56269;51.738;21.652;2023-06-04T11:04:24;4.30;;;1.25;;
69161;SDS011;56269;51.738;21.652;2023-06-04T11:07:03;3.22;;;1.27;;
69161;SDS011;56269;51.738;21.652;2023-06-04T11:09:38;4.73;;;1.20;;
69161;SDS011;56269;51.738;21.652;2023-06-04T11:12:14;4.25;;;1.10;;
69161;SDS011;56269;51.738;21.652;2023-06-04T11:14:40;3.67;;;1.20;;
69161;SDS011;56269;51.738;21.652;2023-06-04T11:17:10;5.10;;;1.30;;
69161;SDS011;56269;51.738;21.652;2023-06-04T11:19:37;4.82;;;1.23;;
69161;SDS011;56269;51.738;21.652;2023-06-04T11:22:10;3.37;;;1.30;;
69161;SDS011;56269;51.738;21.652;2023-06-04T11:24:38;3.15;;;1.10;;
69161;SDS011;56269;51.738;21.652;2023-06-04T11:27:04;2.38;;;1.00;;
69161;SDS011;56269;51.738;21.652;2023-06-04T11:29:31;3.97;;;1.20;;
69161;SDS011;56269;51.738;21.652;2023-06-04T11:31:58;3.08;;;1.10;;
69161;SDS011;56269;51.738;21.652;2023-06-04T11:34:25;3.50;;;1.23;;
69161;SDS011;56269;51.738;21.652;2023-06-04T11:36:52;3.83;;;1.08;;
69161;SDS011;56269;51.738;21.652;2023-06-04T11:39:21;3.40;;;1.30;;
69161;SDS011;56269;51.738;21.652;2023-06-04T11:41:51;3.40;;;1.23;;
69161;SDS011;56269;51.738;21.652;2023-06-04T11:44:19;4.07;;;1.25;;
69161;SDS011;56269;51.738;21.652;2023-06-04T11:46:45;3.10;;;1.10;;
69161;SDS011;56269;51.738;21.652;2023-06-04T11:49:15;5.60;;;1.30;;
69161;SDS011;56269;51.738;21.652;2023-06-04T11:51:45;4.45;;;1.33;;
69161;SDS011;56269;51.738;21.652;2023-06-04T11:54:15;4.07;;;1.30;;
69161;SDS011;56269;51.738;21.652;2023-06-04T11:56:43;5.28;;;1.25;;
69161;SDS011;56269;51.738;21.652;2023-06-04T11:59:11;5.43;;;1.40;;
69161;SDS011;56269;51.738;21.652;2023-06-04T12:01:39;6.20;;;1.30;;
69161;SDS011;56269;51.738;21.652;2023-06-04T12:04:13;4.60;;;1.30;;
69161;SDS011;56269;51.738;21.652;2023-06-04T12:09:24;4.70;;;1.40;;
69161;SDS011;56269;51.738;21.652;2023-06-04T12:11:59;5.53;;;1.13;;
69161;SDS011;56269;51.738;21.652;2023-06-04T12:14:27;5.13;;;1.20;;
69161;SDS011;56269;51.738;21.652;2023-06-04T12:19:27;3.72;;;1.30;;
69161;SDS011;56269;51.738;21.652;2023-06-04T12:24:31;5.07;;;1.40;;
69161;SDS011;56269;51.738;21.652;2023-06-04T12:27:09;3.78;;;1.10;;
69161;SDS011;56269;51.738;21.652;2023-06-04T12:29:37;3.63;;;1.38;;
69161;SDS011;56269;51.738;21.652;2023-06-04T12:34:39;4.65;;;1.30;;
69161;SDS011;56269;51.738;21.652;2023-06-04T12:37:06;4.53;;;1.30;;
69161;SDS011;56269;51.738;21.652;2023-06-04T12:39:33;5.32;;;1.40;;
69161;SDS011;56269;51.738;21.652;2023-06-04T12:42:02;4.13;;;1.27;;
69161;SDS011;56269;51.738;21.652;2023-06-04T12:44:31;3.50;;;1.20;;
69161;SDS011;56269;51.738;21.652;2023-06-04T12:46:57;4.82;;;1.38;;
69161;SDS011;56269;51.738;21.652;2023-06-04T12:49:23;4.87;;;1.40;;
69161;SDS011;56269;51.738;21.652;2023-06-04T12:51:49;3.58;;;1.10;;
69161;SDS011;56269;51.738;21.652;2023-06-04T12:54:17;6.22;;;1.40;;
69161;SDS011;56269;51.738;21.652;2023-06-04T12:56:43;5.07;;;1.45;;
69161;SDS011;56269;51.738;21.652;2023-06-04T12:59:10;6.25;;;1.50;;
69161;SDS011;56269;51.738;21.652;2023-06-04T13:01:36;3.37;;;1.20;;
69161;SDS011;56269;51.738;21.652;2023-06-04T13:04:05;3.80;;;1.15;;
69161;SDS011;56269;51.738;21.652;2023-06-04T13:06:33;3.60;;;1.25;;
69161;SDS011;56269;51.738;21.652;2023-06-04T13:09:01;4.30;;;1.45;;
69161;SDS011;56269;51.738;21.652;2023-06-04T13:11:36;3.67;;;1.40;;
69161;SDS011;56269;51.738;21.652;2023-06-04T13:14:08;3.33;;;1.20;;
69161;SDS011;56269;51.738;21.652;2023-06-04T13:16:35;3.60;;;1.30;;
69161;SDS011;56269;51.738;21.652;2023-06-04T13:19:02;3.58;;;1.30;;
69161;SDS011;56269;51.738;21.652;2023-06-04T13:21:28;6.07;;;1.20;;
69161;SDS011;56269;51.738;21.652;2023-06-04T13:23:55;3.67;;;1.20;;
69161;SDS011;56269;51.738;21.652;2023-06-04T13:26:22;3.70;;;1.20;;
69161;SDS011;56269;51.738;21.652;2023-06-04T13:28:48;8.35;;;1.30;;
69161;SDS011;56269;51.738;21.652;2023-06-04T13:31:14;3.58;;;1.15;;
69161;SDS011;56269;51.738;21.652;2023-06-04T13:33:41;3.88;;;1.30;;
69161;SDS011;56269;51.738;21.652;2023-06-04T13:36:09;5.65;;;1.30;;
69161;SDS011;56269;51.738;21.652;2023-06-04T13:38:36;3.00;;;1.10;;
69161;SDS011;56269;51.738;21.652;2023-06-04T13:41:02;3.90;;;1.30;;
69161;SDS011;56269;51.738;21.652;2023-06-04T13:43:28;3.65;;;1.30;;
69161;SDS011;56269;51.738;21.652;2023-06-04T13:45:54;3.83;;;1.30;;
69161;SDS011;56269;51.738;21.652;2023-06-04T13:48:20;4.20;;;1.30;;
69161;SDS011;56269;51.738;21.652;2023-06-04T13:50:47;3.43;;;1.30;;
69161;SDS011;56269;51.738;21.652;2023-06-04T13:53:13;5.90;;;1.30;;
69161;SDS011;56269;51.738;21.652;2023-06-04T13:55:39;4.55;;;1.25;;
69161;SDS011;56269;51.738;21.652;2023-06-04T13:58:05;3.47;;;1.13;;
69161;SDS011;56269;51.738;21.652;2023-06-04T14:00:32;4.10;;;1.17;;
69161;SDS011;56269;51.738;21.652;2023-06-04T14:03:00;3.90;;;1.30;;
69161;SDS011;56269;51.738;21.652;2023-06-04T14:05:26;4.18;;;1.55;;
69161;SDS011;56269;51.738;21.652;2023-06-04T14:07:55;3.60;;;1.23;;
69161;SDS011;56269;51.738;21.652;2023-06-04T14:10:21;4.68;;;1.30;;
69161;SDS011;56269;51.738;21.652;2023-06-04T14:12:48;5.75;;;1.27;;
69161;SDS011;56269;51.738;21.652;2023-06-04T14:15:14;4.33;;;1.40;;
69161;SDS011;56269;51.738;21.652;2023-06-04T14:17:41;3.97;;;1.40;;
69161;SDS011;56269;51.738;21.652;2023-06-04T14:20:08;3.55;;;1.38;;
69161;SDS011;56269;51.738;21.652;2023-06-04T14:22:35;6.97;;;1.33;;
69161;SDS011;56269;51.738;21.652;2023-06-04T14:25:05;4.50;;;1.40;;
69161;SDS011;56269;51.738;21.652;2023-06-04T14:27:33;4.13;;;1.30;;
69161;SDS011;56269;51.738;21.652;2023-06-04T14:30:00;3.40;;;1.30;;
69161;SDS011;56269;51.738;21.652;2023-06-04T14:32:28;4.70;;;1.60;;
69161;SDS011;56269;51.738;21.652;2023-06-04T14:34:54;4.22;;;1.50;;
69161;SDS011;56269;51.738;21.652;2023-06-04T14:37:21;5.13;;;1.50;;
69161;SDS011;56269;51.738;21.652;2023-06-04T14:39:47;5.17;;;1.30;;
69161;SDS011;56269;51.738;21.652;2023-06-04T14:42:13;3.20;;;1.10;;
69161;SDS011;56269;51.738;21.652;2023-06-04T14:44:39;4.10;;;1.40;;
69161;SDS011;56269;51.738;21.652;2023-06-04T14:47:06;4.47;;;1.20;;
69161;SDS011;56269;51.738;21.652;2023-06-04T14:49:32;4.07;;;1.30;;
69161;SDS011;56269;51.738;21.652;2023-06-04T14:51:58;2.90;;;1.20;;
69161;SDS011;56269;51.738;21.652;2023-06-04T14:54:25;4.07;;;1.30;;
69161;SDS011;56269;51.738;21.652;2023-06-04T14:56:52;7.03;;;1.40;;